KNGP/NGP METAR and TAF weather

Enter ICAO airport designator
Station Type Date Time Source
KNGP METAR 2019/02/21 15:46 UTC NOAA

KNGP 211546Z 03013KT 10SM SCT009 OVC011 17/12 A2990 RMK AO2 T01670122 $


Station Type Date Time Source
KNGP Decoded METAR 2019/02/21 15:46 UTC NOAA

CORPUS CHRISTI NAVAL AIR STN, TX, United States (KNGP) 27-41N 097-17W
Feb 21, 2019 - 10:46 AM EST / 2019.02.21 1546 UTC
Wind: from the NNE (030 degrees) at 15 MPH (13 KT):0
Visibility: 10 mile(s):0
Sky conditions: overcast
Temperature: 62.1 F (16.7 C)
Dew Point: 54.0 F (12.2 C)
Relative Humidity: 74%
Pressure (altimeter): 29.9 in. Hg (1012 hPa)
ob: KNGP 211546Z 03013KT 10SM SCT009 OVC011 17/12 A2990 RMK AO2 T01670122
cycle: 16

Station Type Date Time Source
KNGP TAF 2019/02/21 15:59 UTC NOAA

TAF KNGP 2115/2215 03012KT 9999 OVC012 QNH2987INS
TEMPO 2115/2117 9000 -DZ BR OVC009
FM211700 04009KT 9999 SCT008 OVC012 QNH2980INS
TEMPO 2117/2121 4000 -DZ BR OVC007
TEMPO 2121/2123 8000 BR OVC008
FM212300 07010KT 8000 BR SCT006 OVC010 QNH2980INS
TEMPO 2123/2201 4000 BR OVC004
FM220100 09010KT 2400 BR OVC004 QNH2982INS
FM220300 09010KT 1200 BR OVC004 QNH2987INS
FM220800 07010KT 4000 BR OVC002 QNH2989INS
TEMPO 2210/2215 1200 -DZ BR T19/2120Z T15/2213Z FN20044


Example: see airport list